Wilson Norfolk — 9HA2466 — position and weather

sailwx.info

Track history (hours):
 
Tides and Currents Weather Stations Pressure Air Temp Water Temp Dewpoint Dewpoint Depression Visibility Wind Speed Wind Dir Waves Ship Positions

Wilson Norfolk

Last reported at 2015-Jul-03 23:10 UTC. Time now 2015-Jul-04 03:26 UTC.
Position N 59°22' E 023°55'.

Length 123 m; draft 4.9 m.

Type: Ship. MMSI: 248678000.

Date/timePositionNaut miles runAvg speedWind from/ knotsBaromVisibWave heightAir tempDewpointWater temp
2015-Jul-03 23:10N 59°22' E 023°55'0 0.0
2015-Jul-03 16:07N 59°22' E 023°55'0 0.1
2015-Jul-03 15:28N 59°22' E 023°55'0 0.0
2015-Jul-03 14:31N 59°22' E 023°55'0 0.0
2015-Jul-03 13:31N 59°22' E 023°55'0 0.0
2015-Jul-03 12:31N 59°22' E 023°55'0 0.0
2015-Jul-03 11:31N 59°22' E 023°55'0 0.0
2015-Jul-03 10:31N 59°22' E 023°55'0 0.0
2015-Jul-03 09:07N 59°22' E 023°55'0 0.0
2015-Jul-03 08:22N 59°22' E 023°55'0 0.0
2015-Jul-03 07:28N 59°22' E 023°55'3 3.5
2015-Jul-03 06:33N 59°23' E 023°48'1212.3
2015-Jul-03 05:33N 59°24' E 023°24'1212.5
2015-Jul-03 04:33N 59°25' E 022°60'1212.1
2015-Jul-03 03:33N 59°23' E 022°37'1212.2
2015-Jul-03 02:33N 59°16' E 022°17'1211.9
2015-Jul-03 01:33N 59°09' E 021°58'1211.8
2015-Jul-03 00:33N 59°01' E 021°42'  
2015-Jun-26 03:16N 55°37' E 015°22'1012.2
2015-Jun-26 02:29N 55°32' E 015°08'1111.9
2015-Jun-26 01:33N 55°27' E 014°51'1211.7
2015-Jun-26 00:31N 55°20' E 014°33'1111.8
2015-Jun-25 23:33N 55°11' E 014°21'1211.9
2015-Jun-25 22:31N 55°10' E 013°59'1311.8
2015-Jun-25 21:24N 55°12' E 013°36'1012.0
2015-Jun-25 20:33N 55°13' E 013°18'1212.1
2015-Jun-25 19:34N 55°14' E 012°57'1211.8
2015-Jun-25 18:34N 55°19' E 012°38'1211.7
2015-Jun-25 17:34N 55°31' E 012°42'1110.8
2015-Jun-25 16:34N 55°41' E 012°41'1211.7
2015-Jun-25 15:33N 55°53' E 012°40'1211.9
2015-Jun-25 14:34N 56°05' E 012°35'1313.0
2015-Jun-25 13:34N 56°13' E 012°17'1111.2
2015-Jun-25 12:33N 56°20' E 012°02'1212.4
2015-Jun-25 11:33N 56°32' E 011°57'1212.2
2015-Jun-25 10:33N 56°44' E 011°52'1212.1
2015-Jun-25 09:34N 56°56' E 011°45'1212.0
2015-Jun-25 08:34N 57°07' E 011°38'1211.7
2015-Jun-25 07:33N 57°18' E 011°30'1211.7
2015-Jun-25 06:33N 57°29' E 011°22'1211.9
2015-Jun-25 05:33N 57°37' E 011°05'1212.3
2015-Jun-25 04:32N 57°45' E 010°48'  
Track history (hours):
 
Tides and Currents Weather Stations Pressure Air Temp Water Temp Dewpoint Dewpoint Depression Visibility Wind Speed Wind Dir Waves Ship Positions

Wilson Norfolk

Last reported at 2015-Jul-03 23:10 UTC. Time now 2015-Jul-04 03:26 UTC.
Position N 59°22' E 023°55'.

Length 123 m; draft 4.9 m.

Type: Ship. MMSI: 248678000.

Date/timePositionNaut miles runAvg speedWind from/ knotsBaromVisibWave heightAir tempDewpointWater temp
2015-Jul-03 23:10N 59°22' E 023°55'0 0.0
2015-Jul-03 16:07N 59°22' E 023°55'0 0.1
2015-Jul-03 15:28N 59°22' E 023°55'0 0.0
2015-Jul-03 14:31N 59°22' E 023°55'0 0.0
2015-Jul-03 13:31N 59°22' E 023°55'0 0.0
2015-Jul-03 12:31N 59°22' E 023°55'0 0.0
2015-Jul-03 11:31N 59°22' E 023°55'0 0.0
2015-Jul-03 10:31N 59°22' E 023°55'0 0.0
2015-Jul-03 09:07N 59°22' E 023°55'0 0.0
2015-Jul-03 08:22N 59°22' E 023°55'0 0.0
2015-Jul-03 07:28N 59°22' E 023°55'3 3.5
2015-Jul-03 06:33N 59°23' E 023°48'1212.3
2015-Jul-03 05:33N 59°24' E 023°24'1212.5
2015-Jul-03 04:33N 59°25' E 022°60'1212.1
2015-Jul-03 03:33N 59°23' E 022°37'1212.2
2015-Jul-03 02:33N 59°16' E 022°17'1211.9
2015-Jul-03 01:33N 59°09' E 021°58'1211.8
2015-Jul-03 00:33N 59°01' E 021°42'  
2015-Jun-26 03:16N 55°37' E 015°22'1012.2
2015-Jun-26 02:29N 55°32' E 015°08'1111.9
2015-Jun-26 01:33N 55°27' E 014°51'1211.7
2015-Jun-26 00:31N 55°20' E 014°33'1111.8
2015-Jun-25 23:33N 55°11' E 014°21'1211.9
2015-Jun-25 22:31N 55°10' E 013°59'1311.8
2015-Jun-25 21:24N 55°12' E 013°36'1012.0
2015-Jun-25 20:33N 55°13' E 013°18'1212.1
2015-Jun-25 19:34N 55°14' E 012°57'1211.8
2015-Jun-25 18:34N 55°19' E 012°38'1211.7
2015-Jun-25 17:34N 55°31' E 012°42'1110.8
2015-Jun-25 16:34N 55°41' E 012°41'1211.7
2015-Jun-25 15:33N 55°53' E 012°40'1211.9
2015-Jun-25 14:34N 56°05' E 012°35'1313.0
2015-Jun-25 13:34N 56°13' E 012°17'1111.2
2015-Jun-25 12:33N 56°20' E 012°02'1212.4
2015-Jun-25 11:33N 56°32' E 011°57'1212.2
2015-Jun-25 10:33N 56°44' E 011°52'1212.1
2015-Jun-25 09:34N 56°56' E 011°45'1212.0
2015-Jun-25 08:34N 57°07' E 011°38'1211.7
2015-Jun-25 07:33N 57°18' E 011°30'1211.7
2015-Jun-25 06:33N 57°29' E 011°22'1211.9
2015-Jun-25 05:33N 57°37' E 011°05'1212.3
2015-Jun-25 04:32N 57°45' E 010°48'  

Dump ship's entire track history